createdAt,value
2022-10-23T00:04:35.736Z,100379.69
2022-10-23T00:09:37.157Z,100385.81
2022-10-23T00:14:38.516Z,100390.53
2022-10-23T00:19:39.888Z,100392.88
2022-10-23T00:24:41.252Z,100394.94
2022-10-23T00:29:44.746Z,100390.50
2022-10-23T00:34:46.113Z,100384.69
2022-10-23T00:39:47.471Z,100390.69
2022-10-23T00:44:48.821Z,100384.84
2022-10-23T00:49:50.238Z,100382.28
2022-10-23T00:54:51.755Z,100369.75
2022-10-23T00:59:53.299Z,100358.69
2022-10-23T01:04:54.774Z,100356.00
2022-10-23T01:10:07.123Z,100347.91
2022-10-23T01:15:18.148Z,100340.00
2022-10-23T01:20:31.963Z,100335.81
2022-10-23T01:25:51.824Z,100341.19
2022-10-23T01:30:54.012Z,100340.38
2022-10-23T01:36:01.615Z,100353.25
2022-10-23T01:41:12.387Z,100342.00
2022-10-23T01:46:16.841Z,100326.00
2022-10-23T01:51:20.772Z,100328.66
2022-10-23T01:56:27.098Z,100320.09
2022-10-23T02:01:30.985Z,100318.44
2022-10-23T02:06:32.589Z,100311.75
2022-10-23T02:11:41.054Z,100309.59
2022-10-23T02:16:45.158Z,100304.16
2022-10-23T02:22:01.336Z,100292.13
2022-10-23T02:27:08.131Z,100288.78
2022-10-23T02:32:11.361Z,100289.81
2022-10-23T02:37:12.846Z,100293.16
2022-10-23T02:42:29.186Z,100285.06
2022-10-23T02:47:35.202Z,100268.88
2022-10-23T02:53:09.361Z,100253.88
2022-10-23T02:58:19.990Z,100256.81
2022-10-23T03:03:31.566Z,100270.66
2022-10-23T03:08:55.305Z,100273.38
2022-10-23T03:13:56.941Z,100272.22
2022-10-23T03:18:58.400Z,100266.22
2022-10-23T03:23:59.762Z,100255.59
2022-10-23T03:29:01.110Z,100273.06
2022-10-23T03:34:04.153Z,100264.78
2022-10-23T03:39:07.686Z,100259.69
2022-10-23T03:44:09.075Z,100263.03
2022-10-23T03:49:10.539Z,100254.53
2022-10-23T03:54:11.884Z,100250.81
2022-10-23T03:59:13.274Z,100232.09
2022-10-23T04:04:15.112Z,100246.19
2022-10-23T04:09:16.529Z,100264.44
2022-10-23T04:14:17.897Z,100268.34
2022-10-23T04:19:19.286Z,100263.81
2022-10-23T04:24:20.621Z,100254.84
2022-10-23T04:29:24.429Z,100256.34
2022-10-23T04:34:25.836Z,100268.16
2022-10-23T04:39:27.195Z,100267.97
2022-10-23T04:44:28.568Z,100256.16
2022-10-23T04:49:29.916Z,100259.88
2022-10-23T04:54:36.809Z,100249.25
2022-10-23T04:59:38.184Z,100254.22
2022-10-23T05:04:39.578Z,100243.63
2022-10-23T05:09:40.914Z,100246.75
2022-10-23T05:14:42.352Z,100233.47
2022-10-23T05:19:55.040Z,100238.44
2022-10-23T05:24:57.548Z,100236.09
2022-10-23T05:29:58.963Z,100237.53
2022-10-23T05:35:02.806Z,100230.84
2022-10-23T05:40:04.716Z,100241.19
2022-10-23T05:45:06.657Z,100230.16
2022-10-23T05:50:08.439Z,100213.34
2022-10-23T05:55:09.853Z,100212.91
2022-10-23T06:00:11.958Z,100202.88
2022-10-23T06:05:13.397Z,100213.03
2022-10-23T06:10:15.321Z,100200.41
2022-10-23T06:15:16.784Z,100197.97
2022-10-23T06:20:18.141Z,100191.34
2022-10-23T06:25:19.707Z,100197.16
2022-10-23T06:30:21.085Z,100196.72
2022-10-23T06:35:22.487Z,100190.06
2022-10-23T06:40:23.834Z,100197.53
2022-10-23T06:45:25.201Z,100199.41
2022-10-23T06:50:27.827Z,100192.59
2022-10-23T06:55:30.113Z,100191.63
2022-10-23T07:00:31.537Z,100198.25
2022-10-23T07:05:32.908Z,100200.81
2022-10-23T07:10:34.497Z,100189.03
2022-10-23T07:15:36.181Z,100193.22
2022-10-23T07:20:37.740Z,100193.81
2022-10-23T07:25:39.122Z,100206.25
2022-10-23T07:30:41.299Z,100196.63
2022-10-23T07:35:42.709Z,100211.28
2022-10-23T07:40:45.201Z,100198.31
2022-10-23T07:45:48.495Z,100187.34
2022-10-23T07:50:50.790Z,100190.44
2022-10-23T07:56:00.543Z,100184.31
2022-10-23T08:01:04.103Z,100186.25
2022-10-23T08:06:05.890Z,100185.69
2022-10-23T08:11:07.638Z,100168.28
2022-10-23T08:16:08.981Z,100169.16
2022-10-23T08:21:10.940Z,100178.50
2022-10-23T08:26:14.209Z,100181.44
2022-10-23T08:31:17.934Z,100167.06
2022-10-23T08:36:23.928Z,100177.81
2022-10-23T08:41:34.989Z,100165.47
2022-10-23T08:46:42.250Z,100167.53
2022-10-23T08:51:48.632Z,100153.88
2022-10-23T08:57:03.239Z,100148.19
2022-10-23T09:02:15.505Z,100143.72
2022-10-23T09:07:41.981Z,100156.53
2022-10-23T09:12:43.784Z,100149.00
2022-10-23T09:17:46.205Z,100149.47
2022-10-23T09:22:49.848Z,100144.31
2022-10-23T09:27:56.183Z,100121.56
2022-10-23T09:32:59.958Z,100118.63
2022-10-23T09:38:01.351Z,100125.34
2022-10-23T09:43:14.344Z,100120.75
2022-10-23T09:48:18.638Z,100115.75
2022-10-23T09:53:31.927Z,100132.38
2022-10-23T09:58:43.108Z,100132.00
2022-10-23T10:03:50.010Z,100127.53
2022-10-23T10:08:54.520Z,100123.13
2022-10-23T10:14:15.478Z,100117.22
2022-10-23T10:19:44.157Z,100104.97
2022-10-23T10:25:07.154Z,100104.44
2022-10-23T10:30:23.069Z,100103.03
2022-10-23T10:35:46.048Z,100074.28
2022-10-23T10:40:56.411Z,100065.00
2022-10-23T10:46:20.485Z,100069.50
2022-10-23T11:03:00.352Z,100060.31
2022-10-23T11:08:28.413Z,100053.94
2022-10-23T11:13:42.251Z,100048.34
2022-10-23T11:18:48.767Z,100035.19
2022-10-23T11:23:53.247Z,100027.03
2022-10-23T11:29:25.826Z,100013.25
2022-10-23T11:34:54.878Z,100018.53
2022-10-23T11:40:12.365Z,99990.75
2022-10-23T11:45:36.446Z,99995.47
2022-10-23T11:50:43.647Z,100003.03
2022-10-23T11:56:19.460Z,99998.25
2022-10-23T12:01:36.957Z,99950.06
2022-10-23T12:06:45.596Z,99959.69
2022-10-23T12:11:48.950Z,99959.25
2022-10-23T12:16:50.320Z,99976.19
2022-10-23T12:21:54.978Z,99963.78
2022-10-23T12:27:20.898Z,99946.47
2022-10-23T12:32:54.252Z,99929.47
2022-10-23T12:38:03.590Z,99914.41
2022-10-23T12:43:22.614Z,99908.88
2022-10-23T12:48:24.975Z,99908.28
2022-10-23T12:53:26.348Z,99899.16
2022-10-23T12:58:33.475Z,99880.28
2022-10-23T13:03:35.432Z,99873.63
2022-10-23T13:08:47.035Z,99863.97
2022-10-23T13:13:49.354Z,99861.91
2022-10-23T13:18:51.418Z,99846.94
2022-10-23T13:23:53.742Z,99846.38
2022-10-23T13:28:55.707Z,99835.81
2022-10-23T13:33:59.814Z,99825.25
2022-10-23T13:39:14.510Z,99813.00
2022-10-23T13:44:18.239Z,99811.97
2022-10-23T13:49:20.102Z,99808.75
2022-10-23T13:59:33.807Z,99805.03
2022-10-23T14:04:35.160Z,99782.31
2022-10-23T14:09:36.504Z,99780.66
2022-10-23T14:14:38.407Z,99775.19
2022-10-23T14:19:39.822Z,99786.66
2022-10-23T14:24:41.180Z,99786.91
2022-10-23T14:29:42.598Z,99784.44
2022-10-23T14:34:45.822Z,99778.66
2022-10-23T14:39:49.900Z,99765.22
2022-10-23T14:44:51.683Z,99764.41
2022-10-23T14:49:53.295Z,99743.59
2022-10-23T14:54:54.808Z,99753.69
2022-10-23T14:59:56.142Z,99743.81
2022-10-23T15:04:57.487Z,99746.25
2022-10-23T15:09:58.822Z,99741.53
2022-10-23T15:15:00.152Z,99718.53
2022-10-23T15:20:01.665Z,99713.53
2022-10-23T15:25:03.243Z,99701.72
2022-10-23T15:30:05.157Z,99701.28
2022-10-23T15:35:06.932Z,99690.28
2022-10-23T15:40:08.926Z,99684.25
2022-10-23T15:45:12.791Z,99702.13
2022-10-23T15:50:14.142Z,99676.13
2022-10-23T15:55:15.546Z,99671.69
2022-10-23T16:00:20.352Z,99652.50
2022-10-23T16:05:22.051Z,99656.47
2022-10-23T16:10:24.850Z,99649.44
2022-10-23T16:15:26.182Z,99643.66
2022-10-23T16:20:27.683Z,99650.31
2022-10-23T16:25:29.130Z,99637.47
2022-10-23T16:30:30.856Z,99637.94
2022-10-23T16:35:32.185Z,99641.28
2022-10-23T16:40:33.534Z,99655.00
2022-10-23T16:45:37.066Z,99659.63
2022-10-23T16:50:40.558Z,99648.69
2022-10-23T16:55:41.931Z,99660.25
2022-10-23T17:00:43.325Z,99653.91
2022-10-23T17:05:44.688Z,99641.84
2022-10-23T17:10:46.019Z,99628.94
2022-10-23T17:15:47.363Z,99615.28
2022-10-23T17:20:56.405Z,99616.22
2022-10-23T17:25:57.841Z,99611.97
2022-10-23T17:30:59.559Z,99604.13
2022-10-23T17:36:02.984Z,99601.41
2022-10-23T17:41:05.342Z,99614.38
2022-10-23T17:46:08.475Z,99652.59
2022-10-23T17:51:21.575Z,99678.03
2022-10-23T17:56:25.316Z,99812.38
2022-10-23T18:01:28.774Z,99821.97
2022-10-23T18:06:33.031Z,99808.63
2022-10-23T18:11:37.452Z,99797.84
2022-10-23T18:16:40.386Z,99801.38
2022-10-23T18:21:41.818Z,99813.44
2022-10-23T18:26:43.339Z,99802.31
2022-10-23T18:31:45.802Z,99794.06
2022-10-23T18:36:48.904Z,99797.72
2022-10-23T18:41:52.936Z,99807.88
2022-10-23T18:46:55.388Z,99809.53
2022-10-23T18:51:58.243Z,99787.34
2022-10-23T18:56:59.623Z,99774.00
2022-10-23T19:02:01.053Z,99738.06
2022-10-23T19:07:02.487Z,99719.41
2022-10-23T19:12:05.771Z,99720.72
2022-10-23T19:17:29.800Z,99726.97
2022-10-23T19:22:34.250Z,99724.03
2022-10-23T19:27:36.198Z,99738.66
2022-10-23T19:32:37.561Z,99760.63
2022-10-23T19:37:39.092Z,99762.88
2022-10-23T19:42:41.860Z,99756.41
2022-10-23T19:47:43.628Z,99759.22
2022-10-23T19:52:45.253Z,99758.03
2022-10-23T19:57:46.892Z,99776.22
2022-10-23T20:02:50.213Z,99777.88
2022-10-23T20:07:55.003Z,99772.56
2022-10-23T20:13:02.403Z,99775.53
2022-10-23T20:18:16.371Z,99802.44
2022-10-23T20:23:17.788Z,99807.16
2022-10-23T20:28:19.235Z,99791.72
2022-10-23T20:33:20.558Z,99806.72
2022-10-23T20:38:22.780Z,99799.38
2022-10-23T20:43:24.166Z,99793.38
2022-10-23T20:48:25.604Z,99797.75
2022-10-23T20:53:26.960Z,99797.16
2022-10-23T20:58:28.320Z,99790.88
2022-10-23T21:03:29.745Z,99800.09
2022-10-23T21:08:31.416Z,99793.47
2022-10-23T21:13:32.823Z,99802.56
2022-10-23T21:18:45.413Z,99798.03
2022-10-23T21:23:48.818Z,99807.97
2022-10-23T21:28:56.111Z,99807.38
2022-10-23T21:34:08.241Z,99809.25
2022-10-23T21:39:09.697Z,99794.09
2022-10-23T21:44:13.370Z,99798.59
2022-10-23T21:49:14.724Z,99811.81
2022-10-23T21:54:16.081Z,99817.91
2022-10-23T21:59:24.065Z,99829.47
2022-10-23T22:04:25.448Z,99831.19
2022-10-23T22:09:26.780Z,99823.34
2022-10-23T22:14:28.238Z,99823.81
2022-10-23T22:19:29.579Z,99822.38
2022-10-23T22:24:30.956Z,99837.69
2022-10-23T22:29:32.414Z,99830.03
2022-10-23T22:34:51.943Z,99822.94
2022-10-23T22:39:53.963Z,99826.09
2022-10-23T22:44:55.441Z,99820.31
2022-10-23T22:49:56.780Z,99829.34
2022-10-23T22:54:58.152Z,99833.59
2022-10-23T22:59:59.488Z,99837.56
2022-10-23T23:05:00.811Z,99852.56
2022-10-23T23:10:02.157Z,99856.09
2022-10-23T23:15:04.348Z,99852.56
2022-10-23T23:20:06.114Z,99856.78
2022-10-23T23:25:08.956Z,99855.44
2022-10-23T23:30:10.661Z,99849.00
2022-10-23T23:35:12.070Z,99845.78
2022-10-23T23:40:13.834Z,99845.59
2022-10-23T23:45:15.403Z,99843.81
2022-10-23T23:50:17.633Z,99839.09
2022-10-23T23:55:19.076Z,99832.69
